METAR AND TAF INFORMATION
METAR FOR SBST
ADDS - METARS form results

(1953 UTC 19 September 2021)
Data provider http://aviationweather.gov/metar/data/
 
METAR text: SBST 191900Z VRB03KT 8000 FEW014 OVC018 23/20 Q1014
Conditions at: SBST (SANTOS (BRAZ-AFB, BR) observed 1900 UTC 19 September 2021
Temperature: 23.0°C (73°F)
Dewpoint: 20.0°C (68°F) [RH = 83%]
Pressure (altimeter): 29.94 inches Hg (1014.0 mb)
Winds: variable direction winds at 3 MPH (3 knots; 1.5 m/s)
Visibility: 5 miles ( 8 km)
Ceiling: 1800 feet AGL
Clouds: few clouds at 1400 feet AGL
overcast cloud deck at 1800 feet AGL
Weather: no significant weather observed at this time

 AIRPORT MAP

 RUNWAY INFORMATION
Runway 17 Runway length 4560 ft Runway width 148 ft
Runway elevation 0 ft Runway displaced threshold 0 ft Runway heading 0
Runway 35 Runway length 4560 ft Runway width 148 ft
Runway elevation 0 ft Runway displaced threshold 0 ft Runway heading 0

 AIRPORT FREQUENCIES
Type APP Name SAO PAULO Frequency 119.8 MHZ
Type TWR Name TWR Frequency 118.3 MHZ

 AIRPORT NEAR NAVIGATION AIDS
Type NDB Name Vicente Frequency 360 KHZ
Type NDB Name Santos Frequency 375 KHZ



Powered by Virtual Airlines Manager [v2.6.2]